Time;durP1;ratioP1;P1;durP2;ratioP2;P2;SDS_P1;SDS_P2;PMS_P1;PMS_P2;Temp;Humidity;BMP_temperature;BMP_pressure;BME280_temperature;BME280_humidity;BME280_pressure;Samples;Min_cycle;Max_cycle;Signal;HPM_P1;HPM_P2
2021/05/27 00:00:53;;;;;;;;;;;28.20;93.70;;;;;;5148011;27;19920;-45
2021/05/27 00:03:20;;;;;;;;;;;28.10;93.60;;;;;;5147885;27;19903;-48
2021/05/27 00:05:46;;;;;;;;;;;28.10;93.70;;;;;;5148152;27;19949;-41
2021/05/27 00:08:12;;;;;;;;;;;28.10;93.60;;;;;;5147651;27;19904;-44
2021/05/27 00:10:38;;;;;;;;;;;28.10;93.70;;;;;;5147543;27;20009;-45
2021/05/27 00:13:04;;;;;;;;;;;28.10;93.80;;;;;;5147704;27;20227;-44
2021/05/27 00:15:31;;;;;;;;;;;28.00;93.80;;;;;;5147780;27;19952;-45
2021/05/27 00:17:58;;;;;;;;;;;28.10;93.80;;;;;;5147429;27;19904;-52
2021/05/27 00:20:24;;;;;;;;;;;28.00;93.80;;;;;;5147286;27;19915;-45
2021/05/27 00:22:51;;;;;;;;;;;28.00;93.90;;;;;;5147473;27;19914;-49
2021/05/27 00:25:17;;;;;;;;;;;28.00;93.90;;;;;;5136677;27;19911;-46
2021/05/27 00:27:45;;;;;;;;;;;28.00;93.90;;;;;;5108372;28;19910;-47
2021/05/27 00:30:11;;;;;;;;;;;27.90;93.90;;;;;;5126272;28;19973;-44
2021/05/27 00:32:38;;;;;;;;;;;28.00;94.00;;;;;;5108356;28;19907;-55
2021/05/27 00:35:05;;;;;;;;;;;27.90;93.70;;;;;;5126563;28;19912;-49
2021/05/27 00:37:31;;;;;;;;;;;27.90;93.60;;;;;;5126118;28;19907;-43
2021/05/27 00:39:57;;;;;;;;;;;27.90;93.50;;;;;;5126513;28;19911;-44
2021/05/27 00:42:23;;;;;;;;;;;27.90;93.50;;;;;;5126238;28;19908;-44
2021/05/27 00:45:00;;;;;;;;;;;27.90;93.40;;;;;;5126226;28;19912;-49
2021/05/27 00:47:26;;;;;;;;;;;27.80;93.40;;;;;;5126081;28;19903;-48
2021/05/27 00:49:52;;;;;;;;;;;27.80;93.40;;;;;;5125716;28;19971;-48
2021/05/27 00:52:18;;;;;;;;;;;27.80;93.50;;;;;;5125049;28;20148;-44
2021/05/27 00:54:45;;;;;;;;;;;27.80;93.50;;;;;;5126315;28;19918;-46
2021/05/27 00:57:17;;;;;;;;;;;27.80;93.60;;;;;;5125713;28;19938;-44
2021/05/27 00:59:45;;;;;;;;;;;27.70;93.60;;;;;;5126282;28;19911;-47
2021/05/27 01:02:11;;;;;;;;;;;27.70;93.50;;;;;;5126220;28;19904;-45
2021/05/27 01:04:37;;;;;;;;;;;27.70;93.50;;;;;;5125793;28;20183;-49
2021/05/27 01:07:03;;;;;;;;;;;27.70;93.50;;;;;;5126456;28;20057;-44
2021/05/27 01:09:30;;;;;;;;;;;27.70;93.50;;;;;;5126162;28;19904;-51
2021/05/27 01:11:56;;;;;;;;;;;27.60;93.50;;;;;;5125460;28;19953;-43
2021/05/27 01:17:07;;;;;;;;;;;27.60;93.50;;;;;;5126024;28;19946;-47
2021/05/27 01:19:33;;;;;;;;;;;27.60;93.50;;;;;;5125622;28;19903;-45
2021/05/27 01:21:59;;;;;;;;;;;27.60;93.60;;;;;;5125533;28;20026;-47
2021/05/27 01:24:26;;;;;;;;;;;27.60;93.60;;;;;;5125609;28;19911;-45
2021/05/27 01:26:52;;;;;;;;;;;27.60;93.60;;;;;;5125541;28;19916;-47
2021/05/27 01:29:18;;;;;;;;;;;27.60;93.70;;;;;;5125730;28;19904;-53
2021/05/27 01:31:44;;;;;;;;;;;27.50;93.60;;;;;;5126319;28;19918;-47
2021/05/27 01:34:11;;;;;;;;;;;27.50;93.60;;;;;;5125591;28;20196;-49
2021/05/27 01:36:43;;;;;;;;;;;27.50;93.60;;;;;;5126129;28;19983;-50
2021/05/27 01:39:10;;;;;;;;;;;27.40;93.60;;;;;;5122920;28;19927;-50
2021/05/27 01:41:36;;;;;;;;;;;27.40;93.60;;;;;;5125729;28;20120;-45
2021/05/27 01:44:03;;;;;;;;;;;27.30;93.80;;;;;;5124371;28;20204;-46
2021/05/27 01:46:29;;;;;;;;;;;27.40;93.90;;;;;;5126008;28;19908;-44
2021/05/27 01:48:56;;;;;;;;;;;27.40;94.00;;;;;;5106552;28;19915;-49
2021/05/27 01:51:22;;;;;;;;;;;27.40;93.80;;;;;;5125216;28;19950;-48
2021/05/27 01:53:48;;;;;;;;;;;27.40;93.70;;;;;;5125645;28;19911;-47
2021/05/27 01:56:15;;;;;;;;;;;27.40;93.60;;;;;;5146179;27;20202;-46
2021/05/27 01:58:41;;;;;;;;;;;27.40;93.50;;;;;;5129411;27;19907;-46
2021/05/27 02:01:08;;;;;;;;;;;27.40;93.40;;;;;;5125308;28;19908;-46
2021/05/27 02:03:34;;;;;;;;;;;27.40;93.10;;;;;;5124241;28;19908;-49
2021/05/27 02:06:01;;;;;;;;;;;27.40;93.00;;;;;;5124813;28;19907;-51
2021/05/27 02:08:27;;;;;;;;;;;27.40;93.10;;;;;;5125195;28;19935;-48
2021/05/27 02:10:54;;;;;;;;;;;27.40;93.00;;;;;;5143012;27;19916;-50
2021/05/27 02:13:23;;;;;;;;;;;27.40;92.90;;;;;;5145223;27;19926;-51
2021/05/27 02:15:49;;;;;;;;;;;27.40;93.00;;;;;;5145938;27;19908;-46
2021/05/27 02:18:15;;;;;;;;;;;27.40;92.90;;;;;;5145796;28;19952;-45
2021/05/27 02:20:41;;;;;;;;;;;27.40;92.90;;;;;;5145833;28;19907;-46
2021/05/27 02:23:07;;;;;;;;;;;27.30;92.80;;;;;;5145628;28;19912;-48
2021/05/27 02:25:34;;;;;;;;;;;27.30;92.90;;;;;;5145536;28;19919;-43
2021/05/27 02:28:00;;;;;;;;;;;27.30;93.20;;;;;;5106707;28;19949;-49
2021/05/27 02:30:26;;;;;;;;;;;27.30;93.20;;;;;;5125058;28;19919;-52
2021/05/27 02:32:52;;;;;;;;;;;27.30;93.30;;;;;;5141561;28;19903;-50
2021/05/27 02:35:19;;;;;;;;;;;27.30;93.40;;;;;;5106112;28;19984;-48
2021/05/27 02:37:45;;;;;;;;;;;27.30;93.50;;;;;;5124974;28;19912;-48
2021/05/27 02:40:11;;;;;;;;;;;27.30;93.50;;;;;;5104400;28;19912;-47
2021/05/27 02:42:38;;;;;;;;;;;27.30;93.50;;;;;;5086028;28;19920;-46
2021/05/27 02:45:04;;;;;;;;;;;27.30;93.50;;;;;;5143374;28;19949;-47
2021/05/27 02:47:30;;;;;;;;;;;27.30;93.60;;;;;;5145120;28;20219;-44
2021/05/27 02:49:57;;;;;;;;;;;27.30;93.60;;;;;;5144976;28;20221;-48
2021/05/27 02:52:26;;;;;;;;;;;27.20;93.60;;;;;;5145333;28;19914;-46
2021/05/27 02:54:52;;;;;;;;;;;27.20;93.60;;;;;;5145135;28;19912;-48
2021/05/27 02:57:18;;;;;;;;;;;27.20;93.60;;;;;;5144874;28;20210;-46
2021/05/27 02:59:45;;;;;;;;;;;27.20;93.50;;;;;;5127018;28;19911;-48
2021/05/27 03:02:11;;;;;;;;;;;27.20;93.60;;;;;;5126685;28;19903;-49
2021/05/27 03:04:37;;;;;;;;;;;27.20;93.70;;;;;;5110882;28;19949;-49
2021/05/27 03:07:04;;;;;;;;;;;27.20;93.60;;;;;;5106338;28;19908;-46
2021/05/27 03:09:30;;;;;;;;;;;27.20;93.70;;;;;;5123910;28;19911;-47
2021/05/27 03:11:57;;;;;;;;;;;27.10;93.70;;;;;;5123779;28;19954;-51
2021/05/27 03:14:23;;;;;;;;;;;27.10;93.70;;;;;;5139417;27;19907;-51
2021/05/27 03:16:49;;;;;;;;;;;27.10;93.70;;;;;;5148829;27;19907;-46
2021/05/27 03:19:15;;;;;;;;;;;27.10;93.70;;;;;;5148471;27;19935;-45
2021/05/27 03:21:42;;;;;;;;;;;27.10;93.70;;;;;;5149158;27;19983;-53
2021/05/27 03:24:08;;;;;;;;;;;27.10;93.70;;;;;;5148410;27;19966;-48
2021/05/27 03:26:34;;;;;;;;;;;27.10;93.80;;;;;;5148533;27;19907;-47
2021/05/27 03:29:00;;;;;;;;;;;27.00;93.80;;;;;;5148296;27;19952;-47
2021/05/27 03:31:26;;;;;;;;;;;27.00;93.90;;;;;;5148826;27;19954;-46
2021/05/27 03:33:55;;;;;;;;;;;27.10;94.10;;;;;;5130411;27;19907;-48
2021/05/27 03:36:22;;;;;;;;;;;27.00;94.10;;;;;;5128214;28;20134;-45
2021/05/27 03:38:48;;;;;;;;;;;27.00;94.10;;;;;;5109360;28;19911;-45
2021/05/27 03:41:14;;;;;;;;;;;26.90;94.10;;;;;;5127040;28;19920;-48
2021/05/27 03:43:40;;;;;;;;;;;27.00;94.10;;;;;;5127447;28;19915;-46
2021/05/27 03:46:06;;;;;;;;;;;27.00;94.10;;;;;;5127785;28;19908;-47
2021/05/27 03:48:33;;;;;;;;;;;27.10;94.00;;;;;;5109265;28;19907;-49
2021/05/27 03:50:59;;;;;;;;;;;27.10;93.90;;;;;;5127667;28;19911;-46
2021/05/27 03:53:25;;;;;;;;;;;27.10;93.80;;;;;;5109234;28;19937;-45
2021/05/27 03:55:51;;;;;;;;;;;27.10;93.80;;;;;;5127699;28;20188;-45
2021/05/27 04:01:02;;;;;;;;;;;27.10;93.80;;;;;;5127616;28;19915;-48
2021/05/27 04:07:04;;;;;;;;;;;27.10;93.80;;;;;;5132864;27;19907;-47
2021/05/27 04:08:58;;;;;;;;;;;27.20;93.80;;;;;;5147558;27;20033;-44
2021/05/27 04:11:25;;;;;;;;;;;27.10;93.70;;;;;;5147498;27;19919;-49
2021/05/27 04:13:51;;;;;;;;;;;27.10;93.60;;;;;;5147558;27;19953;-48
2021/05/27 04:16:17;;;;;;;;;;;27.20;93.60;;;;;;5148064;27;19922;-46
2021/05/27 04:18:43;;;;;;;;;;;27.20;93.70;;;;;;5138760;27;19915;-46
2021/05/27 04:21:09;;;;;;;;;;;27.20;93.70;;;;;;5126785;28;19935;-46
2021/05/27 04:23:36;;;;;;;;;;;27.20;93.70;;;;;;5126716;28;19908;-48
2021/05/27 04:26:04;;;;;;;;;;;27.20;93.70;;;;;;5126990;28;19908;-49
2021/05/27 04:28:33;;;;;;;;;;;27.20;93.70;;;;;;5133107;27;19930;-49
2021/05/27 04:31:11;;;;;;;;;;;27.10;93.70;;;;;;5147814;27;19911;-50
2021/05/27 04:33:50;;;;;;;;;;;27.10;93.70;;;;;;5147013;27;19946;-48
2021/05/27 04:36:16;;;;;;;;;;;27.10;93.70;;;;;;5147790;27;20078;-58
2021/05/27 04:38:43;;;;;;;;;;;27.10;93.80;;;;;;5147073;27;19911;-48
2021/05/27 04:41:09;;;;;;;;;;;27.10;93.70;;;;;;5147437;27;20094;-44
2021/05/27 04:43:38;;;;;;;;;;;27.10;94.00;;;;;;5146890;27;19975;-49
2021/05/27 04:46:04;;;;;;;;;;;27.10;93.80;;;;;;5147485;27;20176;-47
2021/05/27 04:48:30;;;;;;;;;;;27.10;93.80;;;;;;5147155;27;19974;-45
2021/05/27 04:50:57;;;;;;;;;;;27.10;93.80;;;;;;5147390;27;20176;-47
2021/05/27 04:53:24;;;;;;;;;;;27.00;93.90;;;;;;5146812;27;20215;-45
2021/05/27 04:55:51;;;;;;;;;;;27.00;93.90;;;;;;5128808;27;19974;-56
2021/05/27 04:58:17;;;;;;;;;;;27.00;93.90;;;;;;5146950;27;19907;-50
2021/05/27 05:00:44;;;;;;;;;;;27.00;93.90;;;;;;5147011;27;20244;-49
2021/05/27 05:03:10;;;;;;;;;;;27.10;94.00;;;;;;5146464;27;19966;-47
2021/05/27 05:05:37;;;;;;;;;;;27.10;94.00;;;;;;5146822;27;19984;-51
2021/05/27 05:08:04;;;;;;;;;;;27.00;93.90;;;;;;5146417;27;20092;-46
2021/05/27 05:10:31;;;;;;;;;;;27.00;94.00;;;;;;5146465;27;19927;-45
2021/05/27 05:12:57;;;;;;;;;;;27.00;94.10;;;;;;5146395;27;19943;-50
2021/05/27 05:15:31;;;;;;;;;;;27.00;94.10;;;;;;5146491;27;19918;-44
2021/05/27 05:17:59;;;;;;;;;;;27.10;94.00;;;;;;5146391;27;19910;-48
2021/05/27 05:20:26;;;;;;;;;;;27.10;94.00;;;;;;5146416;27;19982;-46
2021/05/27 05:22:54;;;;;;;;;;;27.00;94.00;;;;;;5146113;27;19910;-48
2021/05/27 05:25:21;;;;;;;;;;;27.10;94.10;;;;;;5146319;27;20004;-55
2021/05/27 05:27:47;;;;;;;;;;;27.00;94.10;;;;;;5146298;27;19958;-54
2021/05/27 05:30:15;;;;;;;;;;;27.00;94.10;;;;;;5146323;27;19911;-55
2021/05/27 05:32:42;;;;;;;;;;;27.00;94.00;;;;;;5146111;27;20227;-55
2021/05/27 05:35:12;;;;;;;;;;;27.00;94.00;;;;;;5146385;27;19912;-51
2021/05/27 05:37:39;;;;;;;;;;;27.00;94.00;;;;;;5127236;27;19903;-52
2021/05/27 05:40:08;;;;;;;;;;;27.00;94.00;;;;;;5127712;27;19971;-47
2021/05/27 05:42:34;;;;;;;;;;;26.90;94.00;;;;;;5146028;27;19904;-44
2021/05/27 05:45:02;;;;;;;;;;;27.00;94.10;;;;;;5127523;27;19965;-54
2021/05/27 05:47:29;;;;;;;;;;;27.00;94.10;;;;;;5145966;27;19907;-46
2021/05/27 05:49:55;;;;;;;;;;;26.90;94.10;;;;;;5145903;27;19911;-48
2021/05/27 05:52:21;;;;;;;;;;;27.00;94.10;;;;;;5145618;27;19960;-49
2021/05/27 05:54:47;;;;;;;;;;;26.90;94.10;;;;;;5112135;27;19982;-51
2021/05/27 05:57:14;;;;;;;;;;;26.90;94.10;;;;;;5142685;27;19919;-48
2021/05/27 05:59:40;;;;;;;;;;;26.90;94.10;;;;;;5141632;27;19911;-49
2021/05/27 06:02:07;;;;;;;;;;;26.90;94.10;;;;;;5145859;27;19925;-55
2021/05/27 06:04:33;;;;;;;;;;;26.90;94.10;;;;;;5145461;27;19904;-47
2021/05/27 06:06:59;;;;;;;;;;;26.90;94.20;;;;;;5145658;27;19931;-45
2021/05/27 06:09:26;;;;;;;;;;;26.90;94.20;;;;;;5145659;27;19910;-45
2021/05/27 06:11:52;;;;;;;;;;;26.90;94.20;;;;;;5145515;27;19938;-46
2021/05/27 06:14:19;;;;;;;;;;;26.90;94.20;;;;;;5145380;27;19911;-49
2021/05/27 06:16:45;;;;;;;;;;;26.90;94.20;;;;;;5146146;27;19911;-58
2021/05/27 06:19:12;;;;;;;;;;;26.90;94.20;;;;;;5145497;28;19946;-45
2021/05/27 06:21:38;;;;;;;;;;;26.90;94.30;;;;;;5146103;28;19964;-45
2021/05/27 06:24:05;;;;;;;;;;;26.90;94.30;;;;;;5145395;28;19910;-48
2021/05/27 06:26:33;;;;;;;;;;;26.90;94.20;;;;;;5130974;28;19986;-49
2021/05/27 06:28:59;;;;;;;;;;;26.90;94.10;;;;;;5122979;28;19919;-48
2021/05/27 06:31:25;;;;;;;;;;;26.90;94.10;;;;;;5106801;28;19916;-46
2021/05/27 06:33:52;;;;;;;;;;;26.90;94.10;;;;;;5124906;28;19970;-46
2021/05/27 06:36:18;;;;;;;;;;;26.80;94.10;;;;;;5125331;28;19912;-47
2021/05/27 06:38:44;;;;;;;;;;;26.80;94.10;;;;;;5124887;28;20214;-51
2021/05/27 06:41:10;;;;;;;;;;;26.80;94.10;;;;;;5125154;28;19912;-45
2021/05/27 06:43:36;;;;;;;;;;;26.80;94.20;;;;;;5124784;28;19899;-47
2021/05/27 06:46:03;;;;;;;;;;;26.80;94.10;;;;;;5125075;28;19943;-47
2021/05/27 06:48:29;;;;;;;;;;;26.80;94.20;;;;;;5126341;28;19970;-49
2021/05/27 06:50:55;;;;;;;;;;;26.80;94.20;;;;;;5128743;28;20095;-43
2021/05/27 06:53:21;;;;;;;;;;;26.80;94.20;;;;;;5128827;28;19904;-45
2021/05/27 06:55:48;;;;;;;;;;;26.70;94.20;;;;;;5128965;28;19912;-47
2021/05/27 06:58:17;;;;;;;;;;;26.70;94.20;;;;;;5126738;28;19908;-53
2021/05/27 07:00:43;;;;;;;;;;;26.70;94.30;;;;;;5128826;28;19934;-53
2021/05/27 07:03:11;;;;;;;;;;;26.70;94.30;;;;;;5128649;28;19904;-51
2021/05/27 07:05:38;;;;;;;;;;;26.70;94.40;;;;;;5128871;28;19935;-47
2021/05/27 07:08:06;;;;;;;;;;;26.70;94.40;;;;;;5128715;28;19904;-51
2021/05/27 07:10:33;;;;;;;;;;;26.70;94.40;;;;;;5128220;28;19920;-53
2021/05/27 07:13:00;;;;;;;;;;;26.70;94.40;;;;;;5128797;27;19907;-58
2021/05/27 07:15:26;;;;;;;;;;;26.70;94.40;;;;;;5149249;27;19983;-48
2021/05/27 07:17:54;;;;;;;;;;;26.70;94.40;;;;;;5149028;27;19903;-49
2021/05/27 07:20:20;;;;;;;;;;;26.70;94.40;;;;;;5148804;27;19960;-49
2021/05/27 07:22:47;;;;;;;;;;;26.70;94.40;;;;;;5148665;27;19911;-48
2021/05/27 07:25:13;;;;;;;;;;;26.70;94.40;;;;;;5149188;27;19918;-50
2021/05/27 07:27:39;;;;;;;;;;;26.60;94.40;;;;;;5148590;27;19907;-46
2021/05/27 07:30:07;;;;;;;;;;;26.70;94.50;;;;;;5148925;27;20098;-50
2021/05/27 07:32:33;;;;;;;;;;;26.60;94.40;;;;;;5148562;27;20219;-48
2021/05/27 07:35:00;;;;;;;;;;;26.60;94.40;;;;;;5148644;27;19912;-55
2021/05/27 07:37:26;;;;;;;;;;;26.60;94.50;;;;;;5148748;27;20130;-51
2021/05/27 07:39:52;;;;;;;;;;;26.60;94.50;;;;;;5148698;27;19911;-47
2021/05/27 07:42:18;;;;;;;;;;;26.60;94.50;;;;;;5148251;27;19904;-53
2021/05/27 07:44:45;;;;;;;;;;;26.60;94.40;;;;;;5148709;27;20077;-49
2021/05/27 07:47:11;;;;;;;;;;;26.60;94.50;;;;;;5129925;27;19974;-45
2021/05/27 07:49:37;;;;;;;;;;;26.60;94.50;;;;;;5148332;27;19904;-49
2021/05/27 07:52:04;;;;;;;;;;;26.60;94.50;;;;;;5148282;27;19908;-48
2021/05/27 07:54:30;;;;;;;;;;;26.60;94.40;;;;;;5148280;27;19903;-47
2021/05/27 07:56:56;;;;;;;;;;;26.60;94.50;;;;;;5148125;27;19903;-49
2021/05/27 07:59:22;;;;;;;;;;;26.60;94.50;;;;;;5147498;27;20185;-49
2021/05/27 08:01:48;;;;;;;;;;;26.60;94.50;;;;;;5148001;27;19908;-47
2021/05/27 08:04:15;;;;;;;;;;;26.60;94.30;;;;;;5147963;27;20196;-44
2021/05/27 08:06:41;;;;;;;;;;;26.60;94.20;;;;;;5148273;27;19935;-46
2021/05/27 08:09:08;;;;;;;;;;;26.60;94.20;;;;;;5147855;27;19904;-49
2021/05/27 08:11:35;;;;;;;;;;;26.50;94.20;;;;;;5147450;27;19959;-48
2021/05/27 08:14:01;;;;;;;;;;;26.50;94.20;;;;;;5147699;27;19942;-50
2021/05/27 08:16:27;;;;;;;;;;;26.50;94.20;;;;;;5148255;27;19918;-54
2021/05/27 08:18:53;;;;;;;;;;;26.50;94.30;;;;;;5147603;27;19966;-57
2021/05/27 08:21:20;;;;;;;;;;;26.50;94.30;;;;;;5147884;27;19952;-52
2021/05/27 08:23:46;;;;;;;;;;;26.50;94.40;;;;;;5147803;27;19910;-46
2021/05/27 08:26:12;;;;;;;;;;;26.50;94.40;;;;;;5147866;27;19918;-46
2021/05/27 08:28:38;;;;;;;;;;;26.50;94.40;;;;;;5147460;27;19905;-50
2021/05/27 08:31:07;;;;;;;;;;;26.40;94.30;;;;;;5147684;27;20180;-48
2021/05/27 08:33:34;;;;;;;;;;;26.40;94.30;;;;;;5147419;27;19903;-48
2021/05/27 08:36:00;;;;;;;;;;;26.50;94.40;;;;;;5147573;27;20124;-47
2021/05/27 08:38:26;;;;;;;;;;;26.40;94.40;;;;;;5147419;27;20132;-48
2021/05/27 08:40:54;;;;;;;;;;;26.40;94.40;;;;;;5147598;27;19912;-57
2021/05/27 08:43:21;;;;;;;;;;;26.40;94.40;;;;;;5147373;27;19910;-52
2021/05/27 08:45:47;;;;;;;;;;;26.40;94.30;;;;;;5147754;27;20093;-47
2021/05/27 08:48:17;;;;;;;;;;;26.40;94.30;;;;;;5147069;27;19903;-53
2021/05/27 08:50:45;;;;;;;;;;;26.40;94.30;;;;;;5128644;27;20133;-47
2021/05/27 08:53:15;;;;;;;;;;;26.40;94.30;;;;;;5147033;27;19910;-51
2021/05/27 08:55:41;;;;;;;;;;;26.40;94.30;;;;;;5147256;27;19950;-54
2021/05/27 08:58:08;;;;;;;;;;;26.40;94.30;;;;;;5146775;27;19910;-47
2021/05/27 09:00:35;;;;;;;;;;;26.40;94.30;;;;;;5147573;27;20177;-53
2021/05/27 09:03:02;;;;;;;;;;;26.40;94.30;;;;;;5146749;27;19908;-52
2021/05/27 09:05:31;;;;;;;;;;;26.30;94.30;;;;;;5147008;27;19918;-53
2021/05/27 09:07:58;;;;;;;;;;;26.40;94.30;;;;;;5146903;27;19930;-50
2021/05/27 09:10:40;;;;;;;;;;;26.30;94.30;;;;;;5146293;27;20223;-45
2021/05/27 09:13:19;;;;;;;;;;;26.30;94.40;;;;;;5145892;27;19922;-43
2021/05/27 09:15:49;;;;;;;;;;;26.30;94.40;;;;;;5128345;27;20104;-45
2021/05/27 09:18:32;;;;;;;;;;;26.30;94.50;;;;;;5146391;27;19903;-48
2021/05/27 09:20:58;;;;;;;;;;;26.30;94.40;;;;;;5146814;27;19934;-46
2021/05/27 09:23:24;;;;;;;;;;;26.30;94.40;;;;;;5146550;27;19903;-47
2021/05/27 09:25:56;;;;;;;;;;;26.30;94.40;;;;;;5146635;27;20200;-53
2021/05/27 09:28:23;;;;;;;;;;;26.30;94.40;;;;;;5146593;27;19926;-52
2021/05/27 09:30:53;;;;;;;;;;;26.30;94.40;;;;;;5146402;27;19915;-52
2021/05/27 09:33:27;;;;;;;;;;;26.20;94.40;;;;;;5146226;27;19904;-49
2021/05/27 09:36:06;;;;;;;;;;;26.30;94.40;;;;;;5146300;27;19912;-54
2021/05/27 09:38:37;;;;;;;;;;;26.30;94.40;;;;;;5128091;27;19907;-57
2021/05/27 09:41:23;;;;;;;;;;;26.30;94.40;;;;;;5146489;27;20239;-57
2021/05/27 09:44:09;;;;;;;;;;;26.30;94.40;;;;;;5145518;27;20134;-53
2021/05/27 09:46:55;;;;;;;;;;;26.30;94.40;;;;;;5128234;27;19911;-50
2021/05/27 09:49:25;;;;;;;;;;;26.30;94.40;;;;;;5146082;27;19907;-46
2021/05/27 09:51:52;;;;;;;;;;;26.30;94.40;;;;;;5145783;27;19943;-49
2021/05/27 09:54:18;;;;;;;;;;;26.20;94.30;;;;;;5146109;27;19966;-49
2021/05/27 09:56:44;;;;;;;;;;;26.30;94.40;;;;;;5146442;27;19919;-48
2021/05/27 09:59:11;;;;;;;;;;;26.30;94.40;;;;;;5145602;27;20019;-47
2021/05/27 10:01:39;;;;;;;;;;;26.20;94.40;;;;;;5146540;27;19977;-49
2021/05/27 10:04:11;;;;;;;;;;;26.20;94.40;;;;;;5145721;27;19939;-47
2021/05/27 10:06:37;;;;;;;;;;;26.30;94.50;;;;;;5146231;27;19982;-46
2021/05/27 10:09:05;;;;;;;;;;;26.20;94.50;;;;;;5145621;27;19910;-47
2021/05/27 10:11:32;;;;;;;;;;;26.20;94.60;;;;;;5145578;28;19954;-53
2021/05/27 10:13:59;;;;;;;;;;;26.20;94.50;;;;;;5145545;27;19911;-55
2021/05/27 10:16:25;;;;;;;;;;;26.20;94.50;;;;;;5146116;27;19907;-56
2021/05/27 10:18:54;;;;;;;;;;;26.20;94.60;;;;;;5145454;27;19907;-60
2021/05/27 10:21:20;;;;;;;;;;;26.20;94.60;;;;;;5145938;28;19978;-51
2021/05/27 10:23:47;;;;;;;;;;;26.20;94.60;;;;;;5145519;27;19970;-53
2021/05/27 10:26:13;;;;;;;;;;;26.20;94.60;;;;;;5146001;28;20140;-45
2021/05/27 10:28:45;;;;;;;;;;;26.20;94.60;;;;;;5145367;28;19907;-48
2021/05/27 10:31:12;;;;;;;;;;;26.20;94.50;;;;;;5145848;28;20181;-50
2021/05/27 10:33:42;;;;;;;;;;;26.20;94.50;;;;;;5145395;28;19914;-50
2021/05/27 10:36:09;;;;;;;;;;;26.20;94.50;;;;;;5145666;28;19907;-51
2021/05/27 10:38:44;;;;;;;;;;;26.20;94.50;;;;;;5145510;28;19907;-48
2021/05/27 10:41:38;;;;;;;;;;;26.20;94.50;;;;;;5145600;28;19935;-56
2021/05/27 10:44:06;;;;;;;;;;;26.20;94.50;;;;;;5145155;28;19908;-50
2021/05/27 10:46:54;;;;;;;;;;;26.20;94.60;;;;;;5145733;28;19914;-51
2021/05/27 10:49:42;;;;;;;;;;;26.20;94.60;;;;;;5145285;28;20103;-59
2021/05/27 10:52:24;;;;;;;;;;;26.20;94.60;;;;;;5145315;28;19922;-50
2021/05/27 10:54:50;;;;;;;;;;;26.20;94.60;;;;;;5145344;28;19907;-49
2021/05/27 10:57:34;;;;;;;;;;;26.20;94.70;;;;;;5145211;28;19908;-47
2021/05/27 11:00:00;;;;;;;;;;;26.20;94.70;;;;;;5145212;28;20100;-42
2021/05/27 11:02:27;;;;;;;;;;;26.20;94.70;;;;;;5145127;28;19979;-43
2021/05/27 11:05:12;;;;;;;;;;;26.20;94.60;;;;;;5145247;28;19914;-44
2021/05/27 11:07:39;;;;;;;;;;;26.20;94.60;;;;;;5145045;28;19914;-48
2021/05/27 11:10:25;;;;;;;;;;;26.20;94.60;;;;;;5145080;28;19907;-47
2021/05/27 11:13:09;;;;;;;;;;;26.20;94.60;;;;;;5144796;28;19912;-56
2021/05/27 11:15:35;;;;;;;;;;;26.20;94.70;;;;;;5145403;28;19911;-51
2021/05/27 11:18:03;;;;;;;;;;;26.20;94.70;;;;;;5144854;28;19910;-54
2021/05/27 11:20:31;;;;;;;;;;;26.20;94.70;;;;;;5145564;28;19964;-55
2021/05/27 11:23:21;;;;;;;;;;;26.20;94.70;;;;;;5145231;28;19910;-51
2021/05/27 11:25:47;;;;;;;;;;;26.20;94.60;;;;;;5145254;28;19953;-47
2021/05/27 11:28:13;;;;;;;;;;;26.20;94.50;;;;;;5145197;28;19903;-52
2021/05/27 11:30:40;;;;;;;;;;;26.20;94.40;;;;;;5145281;28;19911;-59
2021/05/27 11:33:15;;;;;;;;;;;26.20;94.40;;;;;;5145241;28;20199;-46
2021/05/27 11:35:43;;;;;;;;;;;26.20;94.40;;;;;;5147337;27;19922;-57
2021/05/27 11:38:11;;;;;;;;;;;26.20;94.50;;;;;;5148498;27;19903;-51
2021/05/27 11:40:39;;;;;;;;;;;26.20;94.50;;;;;;5148630;27;19915;-60
2021/05/27 11:43:05;;;;;;;;;;;26.10;94.40;;;;;;5148414;27;19945;-48
2021/05/27 11:45:41;;;;;;;;;;;26.10;94.40;;;;;;5148873;27;20096;-51
2021/05/27 11:48:08;;;;;;;;;;;26.10;94.30;;;;;;5148859;27;19975;-58
2021/05/27 11:50:34;;;;;;;;;;;26.10;94.40;;;;;;5148468;27;19915;-56
2021/05/27 11:53:00;;;;;;;;;;;26.10;94.50;;;;;;5148101;27;19904;-48
2021/05/27 11:55:30;;;;;;;;;;;26.10;94.50;;;;;;5148586;27;19911;-58
2021/05/27 11:57:57;;;;;;;;;;;26.00;94.40;;;;;;5129696;27;19970;-57
2021/05/27 12:00:23;;;;;;;;;;;26.00;94.60;;;;;;5148255;27;19983;-50
2021/05/27 12:02:51;;;;;;;;;;;26.00;94.50;;;;;;5147900;27;19931;-49
2021/05/27 12:05:37;;;;;;;;;;;26.00;94.50;;;;;;5148404;27;19911;-53
2021/05/27 12:08:07;;;;;;;;;;;26.10;94.40;;;;;;5122904;28;19911;-45
2021/05/27 12:10:34;;;;;;;;;;;26.00;94.50;;;;;;5106945;28;20151;-45
2021/05/27 12:13:00;;;;;;;;;;;26.00;94.50;;;;;;5123169;27;19910;-48
2021/05/27 12:15:28;;;;;;;;;;;26.00;94.50;;;;;;5127034;28;19919;-49
2021/05/27 12:17:56;;;;;;;;;;;26.00;94.50;;;;;;5126634;28;19908;-46
2021/05/27 12:20:35;;;;;;;;;;;26.00;94.50;;;;;;5127214;28;20100;-46
2021/05/27 12:23:05;;;;;;;;;;;26.00;94.50;;;;;;5127060;28;20081;-52
2021/05/27 12:25:31;;;;;;;;;;;26.00;94.50;;;;;;5126705;28;19919;-46
2021/05/27 12:27:59;;;;;;;;;;;26.00;94.60;;;;;;5126661;28;19919;-49
2021/05/27 12:30:25;;;;;;;;;;;26.00;94.60;;;;;;5123986;28;20009;-46
2021/05/27 12:32:52;;;;;;;;;;;26.00;94.70;;;;;;5133277;27;19979;-44
2021/05/27 12:35:19;;;;;;;;;;;26.00;95.00;;;;;;5127091;28;20199;-44
2021/05/27 12:37:47;;;;;;;;;;;26.00;95.10;;;;;;5126668;28;19914;-47
2021/05/27 12:40:24;;;;;;;;;;;25.90;95.20;;;;;;5126706;28;19970;-46
2021/05/27 12:42:51;;;;;;;;;;;26.00;95.30;;;;;;5141623;27;19904;-49
2021/05/27 12:45:24;;;;;;;;;;;25.90;95.40;;;;;;5147422;27;19916;-47
2021/05/27 12:48:14;;;;;;;;;;;26.00;95.40;;;;;;5147122;27;19911;-47
2021/05/27 12:50:44;;;;;;;;;;;26.00;95.30;;;;;;5134222;27;20149;-48
2021/05/27 12:53:28;;;;;;;;;;;26.00;95.50;;;;;;5147220;27;19903;-53
2021/05/27 12:55:55;;;;;;;;;;;25.90;95.50;;;;;;5147393;27;19911;-46
2021/05/27 12:58:26;;;;;;;;;;;25.90;95.60;;;;;;5147018;27;19960;-46
2021/05/27 13:00:52;;;;;;;;;;;25.90;95.60;;;;;;5147111;27;19939;-53
2021/05/27 13:03:19;;;;;;;;;;;25.90;95.50;;;;;;5146696;27;20171;-45
2021/05/27 13:05:45;;;;;;;;;;;25.90;95.50;;;;;;5146438;27;19920;-46
2021/05/27 13:08:11;;;;;;;;;;;25.90;95.50;;;;;;5125880;28;19950;-47
2021/05/27 13:10:39;;;;;;;;;;;25.90;95.30;;;;;;5125648;28;20257;-45
2021/05/27 13:13:06;;;;;;;;;;;25.80;95.30;;;;;;5143096;27;19908;-55
2021/05/27 13:15:46;;;;;;;;;;;25.80;95.30;;;;;;5119658;28;19919;-52
2021/05/27 13:18:13;;;;;;;;;;;25.90;95.40;;;;;;5143221;27;19910;-51
2021/05/27 13:20:57;;;;;;;;;;;25.90;95.40;;;;;;5125797;28;20199;-48
2021/05/27 13:23:28;;;;;;;;;;;25.90;95.40;;;;;;5125506;28;20197;-44
2021/05/27 13:26:15;;;;;;;;;;;25.90;95.30;;;;;;5126286;28;20066;-48
2021/05/27 13:28:42;;;;;;;;;;;25.90;95.40;;;;;;5105151;28;19904;-46
2021/05/27 13:31:08;;;;;;;;;;;25.90;95.40;;;;;;5107145;28;19995;-49
2021/05/27 13:33:36;;;;;;;;;;;25.90;95.30;;;;;;5146405;27;19903;-45
2021/05/27 13:36:02;;;;;;;;;;;25.90;95.50;;;;;;5146360;27;19915;-43
2021/05/27 13:38:30;;;;;;;;;;;25.90;95.40;;;;;;5127850;27;19907;-51
2021/05/27 13:40:57;;;;;;;;;;;25.90;95.50;;;;;;5146402;27;19918;-53
2021/05/27 13:43:29;;;;;;;;;;;25.90;95.60;;;;;;5145859;27;19907;-47
2021/05/27 13:45:56;;;;;;;;;;;25.90;95.60;;;;;;5146359;27;19919;-45
2021/05/27 13:48:22;;;;;;;;;;;25.90;95.60;;;;;;5145851;27;19903;-50
2021/05/27 13:50:50;;;;;;;;;;;25.90;95.60;;;;;;5146164;27;19924;-52
2021/05/27 13:53:16;;;;;;;;;;;25.90;95.60;;;;;;5126494;27;19957;-43
2021/05/27 13:56:01;;;;;;;;;;;25.90;95.60;;;;;;5125628;28;20183;-54
2021/05/27 13:58:28;;;;;;;;;;;25.90;95.80;;;;;;5089123;28;19916;-46
2021/05/27 14:00:54;;;;;;;;;;;26.00;95.70;;;;;;5105177;28;19954;-49
2021/05/27 14:03:21;;;;;;;;;;;26.00;95.80;;;;;;5143639;27;19931;-52
2021/05/27 14:05:47;;;;;;;;;;;25.90;95.90;;;;;;5127756;27;19942;-47
2021/05/27 14:08:15;;;;;;;;;;;25.90;95.90;;;;;;5145572;27;19903;-43
2021/05/27 14:10:41;;;;;;;;;;;26.00;95.90;;;;;;5145493;27;20007;-48
2021/05/27 14:13:08;;;;;;;;;;;26.00;96.10;;;;;;5145289;27;19925;-52
2021/05/27 14:15:34;;;;;;;;;;;26.00;96.10;;;;;;5145791;27;19978;-43
2021/05/27 14:18:01;;;;;;;;;;;25.90;96.00;;;;;;5145256;27;19904;-50
2021/05/27 14:20:27;;;;;;;;;;;26.00;96.00;;;;;;5145577;28;19938;-54
2021/05/27 14:22:53;;;;;;;;;;;26.00;96.10;;;;;;5145454;28;19903;-49
2021/05/27 14:25:20;;;;;;;;;;;26.00;96.00;;;;;;5145637;28;19943;-55
2021/05/27 14:27:46;;;;;;;;;;;26.00;96.00;;;;;;5110018;28;20122;-44
2021/05/27 14:30:13;;;;;;;;;;;26.00;95.90;;;;;;5145803;28;19950;-47